sensor_id;sensor_type;location;lat;lon;timestamp;P1;durP1;ratioP1;P2;durP2;ratioP2
3587;SDS011;1808;53.596;9.972;2023-01-10T05:39:53;24.58;;;6.18;;
3587;SDS011;1808;53.596;9.972;2023-01-10T05:42:20;30.65;;;5.43;;
3587;SDS011;1808;53.596;9.972;2023-01-10T05:44:46;26.38;;;6.22;;
3587;SDS011;1808;53.596;9.972;2023-01-10T05:47:12;24.85;;;7.10;;
3587;SDS011;1808;53.596;9.972;2023-01-10T05:49:39;26.58;;;5.15;;
3587;SDS011;1808;53.596;9.972;2023-01-10T05:52:05;26.20;;;5.32;;
3587;SDS011;1808;53.596;9.972;2023-01-10T05:54:32;34.58;;;6.45;;
3587;SDS011;1808;53.596;9.972;2023-01-10T05:56:59;29.13;;;6.32;;
3587;SDS011;1808;53.596;9.972;2023-01-10T05:59:26;37.10;;;7.05;;
3587;SDS011;1808;53.596;9.972;2023-01-10T06:01:52;29.38;;;5.65;;
3587;SDS011;1808;53.596;9.972;2023-01-10T06:04:18;21.88;;;5.70;;
3587;SDS011;1808;53.596;9.972;2023-01-10T06:06:44;20.08;;;5.13;;
3587;SDS011;1808;53.596;9.972;2023-01-10T06:09:11;26.17;;;5.75;;
3587;SDS011;1808;53.596;9.972;2023-01-10T06:11:37;18.63;;;5.20;;
3587;SDS011;1808;53.596;9.972;2023-01-10T06:14:05;46.20;;;9.77;;
3587;SDS011;1808;53.596;9.972;2023-01-10T06:16:32;30.02;;;5.50;;
3587;SDS011;1808;53.596;9.972;2023-01-10T06:18:58;33.42;;;6.90;;
3587;SDS011;1808;53.596;9.972;2023-01-10T06:21:24;31.85;;;5.93;;
3587;SDS011;1808;53.596;9.972;2023-01-10T06:23:51;26.60;;;5.90;;
3587;SDS011;1808;53.596;9.972;2023-01-10T06:26:17;41.20;;;8.15;;
3587;SDS011;1808;53.596;9.972;2023-01-10T06:28:43;33.17;;;5.85;;
3587;SDS011;1808;53.596;9.972;2023-01-10T06:31:14;45.83;;;6.63;;
3587;SDS011;1808;53.596;9.972;2023-01-10T06:33:40;40.20;;;6.82;;
3587;SDS011;1808;53.596;9.972;2023-01-10T06:36:08;43.05;;;7.38;;
3587;SDS011;1808;53.596;9.972;2023-01-10T06:38:42;29.05;;;6.22;;
3587;SDS011;1808;53.596;9.972;2023-01-10T06:41:13;29.65;;;6.65;;
3587;SDS011;1808;53.596;9.972;2023-01-10T06:43:39;37.35;;;7.18;;
3587;SDS011;1808;53.596;9.972;2023-01-10T06:46:06;28.45;;;6.47;;
3587;SDS011;1808;53.596;9.972;2023-01-10T06:48:58;34.00;;;6.03;;
3587;SDS011;1808;53.596;9.972;2023-01-10T07:49:48;40.50;;;7.63;;
3587;SDS011;1808;53.596;9.972;2023-01-10T07:52:14;30.60;;;8.20;;
3587;SDS011;1808;53.596;9.972;2023-01-10T07:54:40;30.08;;;8.13;;
3587;SDS011;1808;53.596;9.972;2023-01-10T07:57:07;30.25;;;7.88;;
3587;SDS011;1808;53.596;9.972;2023-01-10T07:59:33;35.13;;;8.05;;
3587;SDS011;1808;53.596;9.972;2023-01-10T08:01:59;31.92;;;8.05;;
3587;SDS011;1808;53.596;9.972;2023-01-10T08:04:27;29.52;;;8.82;;
3587;SDS011;1808;53.596;9.972;2023-01-10T08:06:53;30.58;;;7.13;;
3587;SDS011;1808;53.596;9.972;2023-01-10T08:09:20;35.20;;;7.97;;
3587;SDS011;1808;53.596;9.972;2023-01-10T08:11:46;43.40;;;8.77;;
3587;SDS011;1808;53.596;9.972;2023-01-10T08:14:12;34.40;;;9.65;;
3587;SDS011;1808;53.596;9.972;2023-01-10T08:16:38;47.03;;;10.10;;
3587;SDS011;1808;53.596;9.972;2023-01-10T08:19:05;46.42;;;7.85;;
3587;SDS011;1808;53.596;9.972;2023-01-10T08:21:33;36.83;;;9.07;;
3587;SDS011;1808;53.596;9.972;2023-01-10T08:23:59;52.42;;;10.90;;
3587;SDS011;1808;53.596;9.972;2023-01-10T08:26:25;41.00;;;8.95;;
3587;SDS011;1808;53.596;9.972;2023-01-10T08:28:52;30.88;;;9.18;;
3587;SDS011;1808;53.596;9.972;2023-01-10T08:31:18;35.55;;;9.07;;
3587;SDS011;1808;53.596;9.972;2023-01-10T08:33:44;45.30;;;9.80;;
3587;SDS011;1808;53.596;9.972;2023-01-10T08:36:14;48.72;;;10.45;;
3587;SDS011;1808;53.596;9.972;2023-01-10T08:38:43;37.85;;;7.53;;
3587;SDS011;1808;53.596;9.972;2023-01-10T08:41:09;40.75;;;8.27;;
3587;SDS011;1808;53.596;9.972;2023-01-10T08:43:36;39.33;;;8.07;;
3587;SDS011;1808;53.596;9.972;2023-01-10T08:46:02;37.75;;;9.23;;
3587;SDS011;1808;53.596;9.972;2023-01-10T08:48:28;52.10;;;10.05;;
3587;SDS011;1808;53.596;9.972;2023-01-10T08:50:55;43.83;;;10.45;;
3587;SDS011;1808;53.596;9.972;2023-01-10T08:53:21;54.30;;;12.32;;
3587;SDS011;1808;53.596;9.972;2023-01-10T08:55:49;33.88;;;10.93;;
3587;SDS011;1808;53.596;9.972;2023-01-10T08:58:15;45.08;;;12.27;;
3587;SDS011;1808;53.596;9.972;2023-01-10T09:00:42;50.50;;;11.57;;
3587;SDS011;1808;53.596;9.972;2023-01-10T09:03:09;43.75;;;11.50;;
3587;SDS011;1808;53.596;9.972;2023-01-10T09:05:35;49.50;;;13.80;;
3587;SDS011;1808;53.596;9.972;2023-01-10T09:08:01;42.22;;;10.95;;
3587;SDS011;1808;53.596;9.972;2023-01-10T09:10:28;43.25;;;11.60;;
3587;SDS011;1808;53.596;9.972;2023-01-10T09:12:57;41.00;;;12.48;;
3587;SDS011;1808;53.596;9.972;2023-01-10T09:15:26;48.80;;;12.32;;
3587;SDS011;1808;53.596;9.972;2023-01-10T09:17:54;54.63;;;11.75;;
3587;SDS011;1808;53.596;9.972;2023-01-10T09:20:21;45.80;;;11.13;;
3587;SDS011;1808;53.596;9.972;2023-01-10T09:22:49;53.60;;;12.25;;
3587;SDS011;1808;53.596;9.972;2023-01-10T09:25:15;49.03;;;11.98;;
3587;SDS011;1808;53.596;9.972;2023-01-10T09:27:42;34.17;;;11.40;;
3587;SDS011;1808;53.596;9.972;2023-01-10T09:30:10;45.80;;;12.75;;
3587;SDS011;1808;53.596;9.972;2023-01-10T09:32:37;53.50;;;14.40;;
3587;SDS011;1808;53.596;9.972;2023-01-10T09:35:04;43.83;;;12.13;;
3587;SDS011;1808;53.596;9.972;2023-01-10T09:37:30;50.92;;;14.00;;
3587;SDS011;1808;53.596;9.972;2023-01-10T09:39:58;42.17;;;12.85;;
3587;SDS011;1808;53.596;9.972;2023-01-10T09:42:27;47.78;;;12.80;;
3587;SDS011;1808;53.596;9.972;2023-01-10T09:45:02;45.42;;;12.02;;
3587;SDS011;1808;53.596;9.972;2023-01-10T09:47:34;54.40;;;18.38;;
3587;SDS011;1808;53.596;9.972;2023-01-10T09:50:09;58.67;;;13.85;;
3587;SDS011;1808;53.596;9.972;2023-01-10T09:55:14;48.05;;;12.23;;
3587;SDS011;1808;53.596;9.972;2023-01-10T09:57:43;36.67;;;10.57;;
3587;SDS011;1808;53.596;9.972;2023-01-10T10:00:13;45.22;;;13.73;;
3587;SDS011;1808;53.596;9.972;2023-01-10T10:02:43;67.07;;;16.75;;
3587;SDS011;1808;53.596;9.972;2023-01-10T10:05:11;61.90;;;18.90;;
3587;SDS011;1808;53.596;9.972;2023-01-10T10:07:42;73.32;;;21.88;;
3587;SDS011;1808;53.596;9.972;2023-01-10T10:10:11;41.10;;;14.40;;
3587;SDS011;1808;53.596;9.972;2023-01-10T10:12:40;38.85;;;11.35;;
3587;SDS011;1808;53.596;9.972;2023-01-10T10:15:13;49.92;;;14.38;;
3587;SDS011;1808;53.596;9.972;2023-01-10T10:17:46;44.63;;;13.90;;
3587;SDS011;1808;53.596;9.972;2023-01-10T10:20:18;51.80;;;12.90;;
3587;SDS011;1808;53.596;9.972;2023-01-10T10:22:53;54.55;;;13.35;;
3587;SDS011;1808;53.596;9.972;2023-01-10T10:25:33;48.90;;;14.60;;
3587;SDS011;1808;53.596;9.972;2023-01-10T10:28:24;44.22;;;15.80;;
3587;SDS011;1808;53.596;9.972;2023-01-10T10:31:01;52.90;;;12.98;;
3587;SDS011;1808;53.596;9.972;2023-01-10T10:33:40;57.25;;;14.63;;
3587;SDS011;1808;53.596;9.972;2023-01-10T10:36:19;34.08;;;9.05;;
3587;SDS011;1808;53.596;9.972;2023-01-10T10:38:47;52.40;;;16.85;;
3587;SDS011;1808;53.596;9.972;2023-01-10T10:41:16;43.53;;;13.02;;
3587;SDS011;1808;53.596;9.972;2023-01-10T10:43:49;56.60;;;16.05;;
3587;SDS011;1808;53.596;9.972;2023-01-10T10:46:17;46.28;;;16.17;;
3587;SDS011;1808;53.596;9.972;2023-01-10T10:48:47;70.15;;;18.75;;
3587;SDS011;1808;53.596;9.972;2023-01-10T10:51:16;60.55;;;19.50;;
3587;SDS011;1808;53.596;9.972;2023-01-10T10:53:45;59.47;;;18.60;;
3587;SDS011;1808;53.596;9.972;2023-01-10T10:56:12;52.78;;;17.40;;
3587;SDS011;1808;53.596;9.972;2023-01-10T10:58:42;58.97;;;16.50;;
3587;SDS011;1808;53.596;9.972;2023-01-10T11:01:10;64.03;;;18.65;;
3587;SDS011;1808;53.596;9.972;2023-01-10T11:03:37;64.28;;;17.23;;
3587;SDS011;1808;53.596;9.972;2023-01-10T11:06:07;57.05;;;18.20;;
3587;SDS011;1808;53.596;9.972;2023-01-10T11:08:35;46.95;;;15.73;;
3587;SDS011;1808;53.596;9.972;2023-01-10T11:11:05;68.45;;;21.48;;
3587;SDS011;1808;53.596;9.972;2023-01-10T11:13:42;61.13;;;18.05;;
3587;SDS011;1808;53.596;9.972;2023-01-10T11:16:22;70.70;;;20.85;;
3587;SDS011;1808;53.596;9.972;2023-01-10T11:21:51;57.92;;;17.98;;
3587;SDS011;1808;53.596;9.972;2023-01-10T11:24:20;56.70;;;15.15;;
3587;SDS011;1808;53.596;9.972;2023-01-10T11:26:54;41.30;;;13.93;;
3587;SDS011;1808;53.596;9.972;2023-01-10T11:29:23;59.60;;;17.40;;
3587;SDS011;1808;53.596;9.972;2023-01-10T11:31:51;47.95;;;15.32;;
3587;SDS011;1808;53.596;9.972;2023-01-10T11:34:20;48.35;;;15.35;;
3587;SDS011;1808;53.596;9.972;2023-01-10T11:36:54;53.22;;;14.73;;
3587;SDS011;1808;53.596;9.972;2023-01-10T11:39:22;65.50;;;16.95;;
3587;SDS011;1808;53.596;9.972;2023-01-10T11:41:49;47.80;;;16.58;;
3587;SDS011;1808;53.596;9.972;2023-01-10T11:44:20;53.22;;;15.82;;
3587;SDS011;1808;53.596;9.972;2023-01-10T11:46:47;57.75;;;16.88;;
3587;SDS011;1808;53.596;9.972;2023-01-10T11:49:16;55.33;;;15.88;;
3587;SDS011;1808;53.596;9.972;2023-01-10T11:51:50;52.63;;;15.20;;
3587;SDS011;1808;53.596;9.972;2023-01-10T11:54:20;62.55;;;19.27;;
3587;SDS011;1808;53.596;9.972;2023-01-10T11:56:52;58.60;;;15.48;;
3587;SDS011;1808;53.596;9.972;2023-01-10T11:59:21;62.35;;;16.42;;
3587;SDS011;1808;53.596;9.972;2023-01-10T12:01:52;42.33;;;14.23;;
3587;SDS011;1808;53.596;9.972;2023-01-10T12:04:21;64.00;;;16.35;;
3587;SDS011;1808;53.596;9.972;2023-01-10T12:06:49;80.10;;;21.15;;
3587;SDS011;1808;53.596;9.972;2023-01-10T12:09:35;55.33;;;17.70;;
3587;SDS011;1808;53.596;9.972;2023-01-10T12:12:04;62.10;;;16.63;;
3587;SDS011;1808;53.596;9.972;2023-01-10T12:14:31;42.35;;;14.70;;
3587;SDS011;1808;53.596;9.972;2023-01-10T12:16:58;57.50;;;16.17;;
3587;SDS011;1808;53.596;9.972;2023-01-10T12:19:25;55.65;;;16.25;;
3587;SDS011;1808;53.596;9.972;2023-01-10T12:21:53;72.53;;;20.08;;
3587;SDS011;1808;53.596;9.972;2023-01-10T12:24:21;68.35;;;18.67;;
3587;SDS011;1808;53.596;9.972;2023-01-10T12:26:53;58.70;;;16.55;;
3587;SDS011;1808;53.596;9.972;2023-01-10T12:29:21;61.00;;;18.67;;
3587;SDS011;1808;53.596;9.972;2023-01-10T12:31:50;65.88;;;18.75;;
3587;SDS011;1808;53.596;9.972;2023-01-10T12:34:19;54.72;;;16.98;;
3587;SDS011;1808;53.596;9.972;2023-01-10T12:36:48;59.53;;;19.58;;
3587;SDS011;1808;53.596;9.972;2023-01-10T12:39:20;55.17;;;16.15;;
3587;SDS011;1808;53.596;9.972;2023-01-10T12:41:51;72.95;;;18.40;;
3587;SDS011;1808;53.596;9.972;2023-01-10T12:44:40;54.78;;;16.27;;
3587;SDS011;1808;53.596;9.972;2023-01-10T12:49:55;58.90;;;17.00;;
3587;SDS011;1808;53.596;9.972;2023-01-10T12:52:27;64.57;;;18.75;;
3587;SDS011;1808;53.596;9.972;2023-01-10T12:54:56;66.35;;;19.10;;
3587;SDS011;1808;53.596;9.972;2023-01-10T12:57:27;65.35;;;17.60;;
3587;SDS011;1808;53.596;9.972;2023-01-10T12:59:56;70.63;;;17.80;;
3587;SDS011;1808;53.596;9.972;2023-01-10T13:02:25;70.97;;;21.17;;
3587;SDS011;1808;53.596;9.972;2023-01-10T13:04:57;56.85;;;18.35;;
3587;SDS011;1808;53.596;9.972;2023-01-10T13:07:26;58.20;;;17.15;;
3587;SDS011;1808;53.596;9.972;2023-01-10T13:09:56;49.72;;;18.20;;
3587;SDS011;1808;53.596;9.972;2023-01-10T13:12:23;69.88;;;19.75;;
3587;SDS011;1808;53.596;9.972;2023-01-10T13:14:59;59.63;;;18.23;;
3587;SDS011;1808;53.596;9.972;2023-01-10T13:17:31;68.72;;;24.30;;
3587;SDS011;1808;53.596;9.972;2023-01-10T13:23:11;62.50;;;17.33;;
3587;SDS011;1808;53.596;9.972;2023-01-10T13:25:41;66.72;;;19.00;;
3587;SDS011;1808;53.596;9.972;2023-01-10T13:28:21;71.22;;;17.98;;
3587;SDS011;1808;53.596;9.972;2023-01-10T13:30:50;66.68;;;19.52;;
3587;SDS011;1808;53.596;9.972;2023-01-10T13:33:18;64.35;;;19.15;;
3587;SDS011;1808;53.596;9.972;2023-01-10T13:35:47;59.30;;;17.73;;
3587;SDS011;1808;53.596;9.972;2023-01-10T13:38:15;58.25;;;17.67;;
3587;SDS011;1808;53.596;9.972;2023-01-10T13:40:54;56.70;;;17.27;;
3587;SDS011;1808;53.596;9.972;2023-01-10T13:46:34;65.43;;;22.23;;
3587;SDS011;1808;53.596;9.972;2023-01-10T13:55:20;56.00;;;16.23;;
3587;SDS011;1808;53.596;9.972;2023-01-10T13:57:58;55.97;;;17.65;;
3587;SDS011;1808;53.596;9.972;2023-01-10T14:00:41;47.97;;;17.08;;
3587;SDS011;1808;53.596;9.972;2023-01-10T14:03:37;47.83;;;15.80;;
3587;SDS011;1808;53.596;9.972;2023-01-10T14:06:05;66.53;;;18.48;;
3587;SDS011;1808;53.596;9.972;2023-01-10T14:08:35;50.28;;;16.38;;
3587;SDS011;1808;53.596;9.972;2023-01-10T14:11:05;57.20;;;18.65;;
3587;SDS011;1808;53.596;9.972;2023-01-10T14:13:32;44.47;;;16.40;;
3587;SDS011;1808;53.596;9.972;2023-01-10T14:16:00;57.45;;;18.05;;
3587;SDS011;1808;53.596;9.972;2023-01-10T14:18:27;57.72;;;16.63;;
3587;SDS011;1808;53.596;9.972;2023-01-10T14:20:58;37.65;;;15.57;;
3587;SDS011;1808;53.596;9.972;2023-01-10T14:23:27;50.72;;;15.70;;
3587;SDS011;1808;53.596;9.972;2023-01-10T14:25:56;59.08;;;15.75;;
3587;SDS011;1808;53.596;9.972;2023-01-10T14:28:24;60.60;;;15.38;;
3587;SDS011;1808;53.596;9.972;2023-01-10T14:30:58;47.42;;;14.50;;
3587;SDS011;1808;53.596;9.972;2023-01-10T14:33:27;54.50;;;14.52;;
3587;SDS011;1808;53.596;9.972;2023-01-10T14:35:55;48.90;;;13.75;;
3587;SDS011;1808;53.596;9.972;2023-01-10T14:38:25;54.13;;;16.38;;
3587;SDS011;1808;53.596;9.972;2023-01-10T14:40:54;50.20;;;14.55;;
3587;SDS011;1808;53.596;9.972;2023-01-10T14:43:24;46.50;;;14.02;;
3587;SDS011;1808;53.596;9.972;2023-01-10T14:45:53;44.35;;;14.38;;
3587;SDS011;1808;53.596;9.972;2023-01-10T14:48:25;41.60;;;13.30;;
3587;SDS011;1808;53.596;9.972;2023-01-10T14:51:07;40.50;;;13.73;;
3587;SDS011;1808;53.596;9.972;2023-01-10T14:53:35;53.53;;;13.70;;
3587;SDS011;1808;53.596;9.972;2023-01-10T14:56:01;41.88;;;12.82;;
3587;SDS011;1808;53.596;9.972;2023-01-10T14:58:28;43.85;;;13.50;;
3587;SDS011;1808;53.596;9.972;2023-01-10T15:00:54;48.65;;;12.90;;
3587;SDS011;1808;53.596;9.972;2023-01-10T15:03:22;32.15;;;10.57;;
3587;SDS011;1808;53.596;9.972;2023-01-10T15:05:51;37.35;;;10.73;;
3587;SDS011;1808;53.596;9.972;2023-01-10T15:08:20;45.58;;;12.25;;
3587;SDS011;1808;53.596;9.972;2023-01-10T15:10:48;53.47;;;13.40;;
3587;SDS011;1808;53.596;9.972;2023-01-10T15:13:16;38.97;;;11.88;;
3587;SDS011;1808;53.596;9.972;2023-01-10T15:15:45;44.83;;;12.35;;
3587;SDS011;1808;53.596;9.972;2023-01-10T15:18:17;42.10;;;10.68;;
3587;SDS011;1808;53.596;9.972;2023-01-10T15:20:52;40.47;;;12.52;;
3587;SDS011;1808;53.596;9.972;2023-01-10T15:23:18;37.75;;;11.05;;
3587;SDS011;1808;53.596;9.972;2023-01-10T15:25:45;43.38;;;12.00;;
3587;SDS011;1808;53.596;9.972;2023-01-10T15:28:20;50.10;;;12.15;;
3587;SDS011;1808;53.596;9.972;2023-01-10T15:30:46;39.13;;;11.85;;
3587;SDS011;1808;53.596;9.972;2023-01-10T15:33:13;57.13;;;13.93;;
3587;SDS011;1808;53.596;9.972;2023-01-10T15:35:41;47.53;;;12.25;;
3587;SDS011;1808;53.596;9.972;2023-01-10T15:38:12;52.30;;;12.48;;
3587;SDS011;1808;53.596;9.972;2023-01-10T15:40:40;47.67;;;13.90;;
3587;SDS011;1808;53.596;9.972;2023-01-10T15:43:10;45.85;;;14.70;;
3587;SDS011;1808;53.596;9.972;2023-01-10T15:45:43;59.92;;;16.85;;
3587;SDS011;1808;53.596;9.972;2023-01-10T15:48:23;50.80;;;14.35;;
3587;SDS011;1808;53.596;9.972;2023-01-10T15:50:52;34.45;;;13.32;;
3587;SDS011;1808;53.596;9.972;2023-01-10T15:56:23;46.95;;;14.07;;
3587;SDS011;1808;53.596;9.972;2023-01-10T15:58:52;54.80;;;14.85;;
3587;SDS011;1808;53.596;9.972;2023-01-10T16:01:19;47.85;;;12.95;;
3587;SDS011;1808;53.596;9.972;2023-01-10T16:03:46;34.45;;;11.45;;
3587;SDS011;1808;53.596;9.972;2023-01-10T16:06:24;46.95;;;16.77;;
3587;SDS011;1808;53.596;9.972;2023-01-10T16:08:54;52.95;;;16.85;;
3587;SDS011;1808;53.596;9.972;2023-01-10T16:11:23;43.58;;;14.27;;
3587;SDS011;1808;53.596;9.972;2023-01-10T16:14:10;63.75;;;19.75;;
3587;SDS011;1808;53.596;9.972;2023-01-10T16:16:36;58.42;;;15.77;;
3587;SDS011;1808;53.596;9.972;2023-01-10T16:19:03;52.67;;;14.02;;
3587;SDS011;1808;53.596;9.972;2023-01-10T16:21:31;60.28;;;18.42;;
3587;SDS011;1808;53.596;9.972;2023-01-10T16:24:02;66.30;;;17.40;;
3587;SDS011;1808;53.596;9.972;2023-01-10T16:26:29;53.45;;;13.07;;
3587;SDS011;1808;53.596;9.972;2023-01-10T16:28:56;50.78;;;14.93;;
3587;SDS011;1808;53.596;9.972;2023-01-10T16:31:22;63.40;;;16.63;;
3587;SDS011;1808;53.596;9.972;2023-01-10T16:33:49;46.75;;;18.05;;
3587;SDS011;1808;53.596;9.972;2023-01-10T16:36:16;58.70;;;18.98;;
3587;SDS011;1808;53.596;9.972;2023-01-10T16:38:45;57.83;;;15.38;;
3587;SDS011;1808;53.596;9.972;2023-01-10T16:41:13;52.38;;;15.93;;
3587;SDS011;1808;53.596;9.972;2023-01-10T16:43:58;51.55;;;14.25;;
3587;SDS011;1808;53.596;9.972;2023-01-10T16:46:25;61.53;;;16.58;;
3587;SDS011;1808;53.596;9.972;2023-01-10T16:48:52;59.83;;;19.48;;
3587;SDS011;1808;53.596;9.972;2023-01-10T16:51:19;44.53;;;16.00;;
3587;SDS011;1808;53.596;9.972;2023-01-10T16:53:47;66.65;;;19.35;;
3587;SDS011;1808;53.596;9.972;2023-01-10T16:56:16;62.40;;;17.83;;
3587;SDS011;1808;53.596;9.972;2023-01-10T16:58:43;62.47;;;17.67;;
3587;SDS011;1808;53.596;9.972;2023-01-10T17:01:12;50.33;;;16.08;;
3587;SDS011;1808;53.596;9.972;2023-01-10T17:03:40;63.63;;;17.17;;
3587;SDS011;1808;53.596;9.972;2023-01-10T17:06:07;59.30;;;16.48;;
3587;SDS011;1808;53.596;9.972;2023-01-10T17:08:34;68.72;;;19.92;;
3587;SDS011;1808;53.596;9.972;2023-01-10T17:11:01;66.75;;;17.05;;
3587;SDS011;1808;53.596;9.972;2023-01-10T17:13:31;45.08;;;15.32;;
3587;SDS011;1808;53.596;9.972;2023-01-10T17:15:58;51.90;;;15.50;;
3587;SDS011;1808;53.596;9.972;2023-01-10T17:18:25;68.60;;;20.85;;
3587;SDS011;1808;53.596;9.972;2023-01-10T17:20:52;50.13;;;14.73;;
3587;SDS011;1808;53.596;9.972;2023-01-10T17:23:19;68.10;;;17.80;;
3587;SDS011;1808;53.596;9.972;2023-01-10T17:25:49;71.88;;;18.02;;
3587;SDS011;1808;53.596;9.972;2023-01-10T17:28:46;47.47;;;14.15;;
3587;SDS011;1808;53.596;9.972;2023-01-10T17:31:13;47.25;;;14.13;;
3587;SDS011;1808;53.596;9.972;2023-01-10T17:33:40;52.55;;;17.02;;
3587;SDS011;1808;53.596;9.972;2023-01-10T17:36:07;70.55;;;18.10;;
3587;SDS011;1808;53.596;9.972;2023-01-10T17:38:33;46.85;;;13.80;;
3587;SDS011;1808;53.596;9.972;2023-01-10T17:41:02;57.85;;;18.00;;
3587;SDS011;1808;53.596;9.972;2023-01-10T17:43:29;51.72;;;14.77;;
3587;SDS011;1808;53.596;9.972;2023-01-10T17:45:57;45.80;;;14.85;;
3587;SDS011;1808;53.596;9.972;2023-01-10T17:48:23;41.95;;;14.85;;
3587;SDS011;1808;53.596;9.972;2023-01-10T17:50:54;47.97;;;12.43;;
3587;SDS011;1808;53.596;9.972;2023-01-10T17:53:21;69.80;;;16.85;;
3587;SDS011;1808;53.596;9.972;2023-01-10T17:55:48;53.17;;;15.38;;
3587;SDS011;1808;53.596;9.972;2023-01-10T17:58:15;57.40;;;15.32;;
3587;SDS011;1808;53.596;9.972;2023-01-10T18:00:43;46.42;;;12.70;;
3587;SDS011;1808;53.596;9.972;2023-01-10T18:03:11;52.97;;;12.93;;
3587;SDS011;1808;53.596;9.972;2023-01-10T18:05:38;45.85;;;11.80;;
3587;SDS011;1808;53.596;9.972;2023-01-10T18:08:04;38.53;;;12.20;;
3587;SDS011;1808;53.596;9.972;2023-01-10T18:10:32;42.95;;;13.77;;
3587;SDS011;1808;53.596;9.972;2023-01-10T18:12:59;58.88;;;13.85;;
3587;SDS011;1808;53.596;9.972;2023-01-10T18:15:25;39.95;;;12.32;;
3587;SDS011;1808;53.596;9.972;2023-01-10T18:17:52;39.78;;;10.25;;
3587;SDS011;1808;53.596;9.972;2023-01-10T18:20:20;43.78;;;12.35;;
3587;SDS011;1808;53.596;9.972;2023-01-10T18:22:46;42.88;;;11.45;;
3587;SDS011;1808;53.596;9.972;2023-01-10T18:25:30;43.15;;;9.88;;
3587;SDS011;1808;53.596;9.972;2023-01-10T18:27:57;36.67;;;11.73;;
3587;SDS011;1808;53.596;9.972;2023-01-10T18:30:24;29.30;;;8.90;;
3587;SDS011;1808;53.596;9.972;2023-01-10T18:32:51;44.78;;;9.55;;
3587;SDS011;1808;53.596;9.972;2023-01-10T18:35:20;44.78;;;9.05;;
3587;SDS011;1808;53.596;9.972;2023-01-10T18:37:46;45.22;;;10.90;;
3587;SDS011;1808;53.596;9.972;2023-01-10T18:40:13;29.73;;;8.45;;
3587;SDS011;1808;53.596;9.972;2023-01-10T18:42:39;37.63;;;10.10;;
3587;SDS011;1808;53.596;9.972;2023-01-10T18:45:06;37.13;;;9.32;;
3587;SDS011;1808;53.596;9.972;2023-01-10T18:47:34;35.05;;;10.50;;
3587;SDS011;1808;53.596;9.972;2023-01-10T18:50:00;29.42;;;8.20;;
3587;SDS011;1808;53.596;9.972;2023-01-10T18:52:28;29.13;;;7.85;;
3587;SDS011;1808;53.596;9.972;2023-01-10T18:54:55;35.88;;;9.88;;
3587;SDS011;1808;53.596;9.972;2023-01-10T18:57:22;31.15;;;7.72;;
3587;SDS011;1808;53.596;9.972;2023-01-10T18:59:49;41.60;;;10.77;;
3587;SDS011;1808;53.596;9.972;2023-01-10T19:02:15;33.80;;;8.25;;
3587;SDS011;1808;53.596;9.972;2023-01-10T19:04:42;41.33;;;8.40;;
3587;SDS011;1808;53.596;9.972;2023-01-10T19:07:09;38.25;;;8.75;;
3587;SDS011;1808;53.596;9.972;2023-01-10T19:09:36;48.47;;;8.27;;
3587;SDS011;1808;53.596;9.972;2023-01-10T19:12:03;40.47;;;7.93;;
3587;SDS011;1808;53.596;9.972;2023-01-10T19:14:29;34.15;;;7.95;;
3587;SDS011;1808;53.596;9.972;2023-01-10T19:16:56;35.10;;;7.60;;
3587;SDS011;1808;53.596;9.972;2023-01-10T19:19:22;28.38;;;7.45;;
3587;SDS011;1808;53.596;9.972;2023-01-10T19:21:51;30.38;;;7.18;;
3587;SDS011;1808;53.596;9.972;2023-01-10T19:24:21;34.25;;;8.25;;
3587;SDS011;1808;53.596;9.972;2023-01-10T19:26:50;33.92;;;7.32;;
3587;SDS011;1808;53.596;9.972;2023-01-10T19:29:16;26.85;;;7.38;;
3587;SDS011;1808;53.596;9.972;2023-01-10T19:31:43;28.30;;;5.93;;
3587;SDS011;1808;53.596;9.972;2023-01-10T19:34:14;26.10;;;5.90;;
3587;SDS011;1808;53.596;9.972;2023-01-10T19:36:41;28.42;;;7.50;;
3587;SDS011;1808;53.596;9.972;2023-01-10T19:39:10;23.60;;;6.35;;
3587;SDS011;1808;53.596;9.972;2023-01-10T19:41:37;22.27;;;5.57;;
3587;SDS011;1808;53.596;9.972;2023-01-10T19:44:06;21.08;;;6.35;;
3587;SDS011;1808;53.596;9.972;2023-01-10T19:46:37;25.30;;;6.65;;
3587;SDS011;1808;53.596;9.972;2023-01-10T19:49:04;34.90;;;6.72;;
3587;SDS011;1808;53.596;9.972;2023-01-10T19:51:32;22.98;;;5.53;;
3587;SDS011;1808;53.596;9.972;2023-01-10T19:53:59;31.88;;;6.63;;
3587;SDS011;1808;53.596;9.972;2023-01-10T19:56:29;23.30;;;5.65;;
3587;SDS011;1808;53.596;9.972;2023-01-10T19:58:59;28.90;;;5.45;;
3587;SDS011;1808;53.596;9.972;2023-01-10T20:01:33;26.10;;;5.95;;
3587;SDS011;1808;53.596;9.972;2023-01-10T20:04:00;24.35;;;6.35;;
3587;SDS011;1808;53.596;9.972;2023-01-10T20:06:30;26.08;;;7.50;;
3587;SDS011;1808;53.596;9.972;2023-01-10T20:08:59;22.35;;;5.40;;
3587;SDS011;1808;53.596;9.972;2023-01-10T20:11:29;21.98;;;4.95;;
3587;SDS011;1808;53.596;9.972;2023-01-10T20:14:02;27.63;;;6.18;;
3587;SDS011;1808;53.596;9.972;2023-01-10T20:16:28;15.50;;;5.90;;
3587;SDS011;1808;53.596;9.972;2023-01-10T20:18:57;33.22;;;5.88;;
3587;SDS011;1808;53.596;9.972;2023-01-10T20:21:23;24.25;;;5.50;;
3587;SDS011;1808;53.596;9.972;2023-01-10T20:23:50;18.70;;;4.88;;
3587;SDS011;1808;53.596;9.972;2023-01-10T20:26:24;21.70;;;4.88;;
3587;SDS011;1808;53.596;9.972;2023-01-10T20:28:51;22.55;;;5.55;;
3587;SDS011;1808;53.596;9.972;2023-01-10T20:31:27;22.88;;;5.63;;
3587;SDS011;1808;53.596;9.972;2023-01-10T20:33:54;25.63;;;6.07;;
3587;SDS011;1808;53.596;9.972;2023-01-10T20:36:22;21.65;;;4.15;;
3587;SDS011;1808;53.596;9.972;2023-01-10T20:38:53;14.98;;;4.70;;
3587;SDS011;1808;53.596;9.972;2023-01-10T20:41:21;17.92;;;4.95;;
3587;SDS011;1808;53.596;9.972;2023-01-10T20:43:48;21.65;;;5.63;;
3587;SDS011;1808;53.596;9.972;2023-01-10T20:46:17;23.13;;;4.47;;
3587;SDS011;1808;53.596;9.972;2023-01-10T20:48:44;17.30;;;4.28;;
3587;SDS011;1808;53.596;9.972;2023-01-10T20:51:12;30.63;;;4.70;;
3587;SDS011;1808;53.596;9.972;2023-01-10T20:53:41;22.42;;;4.30;;
3587;SDS011;1808;53.596;9.972;2023-01-10T20:56:12;21.92;;;4.35;;
3587;SDS011;1808;53.596;9.972;2023-01-10T20:58:57;30.00;;;5.70;;
3587;SDS011;1808;53.596;9.972;2023-01-10T21:01:29;22.45;;;3.92;;
3587;SDS011;1808;53.596;9.972;2023-01-10T21:03:56;18.30;;;3.10;;
3587;SDS011;1808;53.596;9.972;2023-01-10T21:06:25;23.27;;;5.03;;
3587;SDS011;1808;53.596;9.972;2023-01-10T21:08:53;18.05;;;3.88;;
3587;SDS011;1808;53.596;9.972;2023-01-10T21:11:20;20.88;;;4.43;;
3587;SDS011;1808;53.596;9.972;2023-01-10T21:13:47;23.20;;;4.28;;
3587;SDS011;1808;53.596;9.972;2023-01-10T21:16:14;20.45;;;4.07;;
3587;SDS011;1808;53.596;9.972;2023-01-10T21:18:42;23.10;;;5.32;;
3587;SDS011;1808;53.596;9.972;2023-01-10T21:21:09;24.15;;;4.10;;
3587;SDS011;1808;53.596;9.972;2023-01-10T21:23:39;12.38;;;3.40;;
3587;SDS011;1808;53.596;9.972;2023-01-10T21:26:09;22.38;;;5.35;;
3587;SDS011;1808;53.596;9.972;2023-01-10T21:28:37;22.00;;;3.78;;
3587;SDS011;1808;53.596;9.972;2023-01-10T21:31:06;17.75;;;3.50;;
3587;SDS011;1808;53.596;9.972;2023-01-10T21:33:33;16.65;;;3.30;;
3587;SDS011;1808;53.596;9.972;2023-01-10T21:36:00;23.08;;;4.07;;
3587;SDS011;1808;53.596;9.972;2023-01-10T21:38:27;20.42;;;4.15;;
3587;SDS011;1808;53.596;9.972;2023-01-10T21:40:54;19.80;;;3.97;;
3587;SDS011;1808;53.596;9.972;2023-01-10T21:43:23;21.48;;;3.63;;
3587;SDS011;1808;53.596;9.972;2023-01-10T21:45:49;18.30;;;3.42;;
3587;SDS011;1808;53.596;9.972;2023-01-10T21:48:16;17.48;;;4.28;;
3587;SDS011;1808;53.596;9.972;2023-01-10T21:50:42;17.95;;;3.45;;
3587;SDS011;1808;53.596;9.972;2023-01-10T21:53:09;13.38;;;4.40;;
3587;SDS011;1808;53.596;9.972;2023-01-10T21:55:36;13.60;;;2.92;;
3587;SDS011;1808;53.596;9.972;2023-01-10T21:58:02;13.95;;;3.70;;
3587;SDS011;1808;53.596;9.972;2023-01-10T22:00:30;11.10;;;2.72;;
3587;SDS011;1808;53.596;9.972;2023-01-10T22:02:57;23.48;;;4.63;;
3587;SDS011;1808;53.596;9.972;2023-01-10T22:05:23;19.50;;;3.15;;